Tom Price Western Australia
Tom Price Western Australia
Language:  English
Updated21/09/2017 2:20am 
 

METAR Reports

YPPD - Port Hedland Arr, Australia
Distance from station: NNE 256km
Updated: Thu, 21-Sep-2017 2:00am AWST
Clear
Clear
 Wind from WNW
Wind: WNW 13 km/h
Temperature: 22°C
Dew Point: 22°C
Humidity: 100%
Barometer: 1011 hPa
Clouds: Clear
Visibility: 10 km
2017/09/20 18:00 YPPD 201800Z AUTO 29007KT 9999 // NCD 22/22 Q1011
YPLM - Learmouth, Australia
Distance from station: W 351km
Updated: Thu, 21-Sep-2017 2:00am AWST
Clear
Clear
 Wind from SW
Wind: SW 11 km/h
Temperature: 18°C
Dew Point: 17°C
Humidity: 94%
Barometer: 1013 hPa
Clouds: Clear
Visibility: 10 km
2017/09/20 18:00 YPLM 201800Z AUTO 22006KT 9999 // NCD 18/17 Q1013
YTEF - Telfer Airport, Australia
Distance from station: E 497km
Updated: Thu, 21-Sep-2017 2:00am AWST
Clear
Clear
 Wind from NW
Wind: NW 11 km/h
Temperature: 24°C
Dew Point: 1°C
Humidity: 22%
Barometer: 1012 hPa
Clouds: Clear
Visibility: 10 km
2017/09/20 18:00 YTEF 201800Z AUTO 31006KT 9999 // NCD 24/01 Q1012
 
YBRM - Broome Airport, Australia
Distance from station: NE 702km
Updated: Thu, 21-Sep-2017 2:00am AWST
Light rain, Showers, Overcast
Light rain, Showers, Overcast
 Wind from N
Wind: N 2 km/h
Temperature: 18°C
Dew Point: 18°C
Humidity: 100%
Barometer: 1011 hPa
Summary: Light rain, Showers
Clouds: Overcast
Visibility: 0 km
Cloud details: Overcast 30 m
2017/09/20 18:00 YBRM 201800Z AUTO 01001KT 0150 -SHRA OVC001 18/18 Q1011
YGEL - Geraldton, Australia
Distance from station: SSW 763km
Updated: Thu, 21-Sep-2017 2:00am AWST
Clear
Clear
 Wind from NNE
Wind: NNE 13 km/h
Temperature: 14°C
Dew Point: 13°C
Humidity: 94%
Barometer: 1012 hPa
Clouds: Clear
Visibility: 10 km
2017/09/20 18:00 YGEL 201800Z AUTO 02007KT 9999 // NCD 14/13 Q1012 RF00.0/000.0
YCIN - Curtin/Derby, Australia
Distance from station: NE 854km
Updated: Thu, 21-Sep-2017 2:00am AWST
Clear
Clear
 Wind from S
Wind: S 7 km/h
Temperature: 17°C
Dew Point: 6°C
Humidity: 49%
Barometer: 1011 hPa
Clouds: Clear
Visibility: 10 km
2017/09/20 18:00 YCIN 201800Z AUTO 17004KT 9999 // NCD 17/06 Q1011